sensor_id;sensor_type;location;lat;lon;timestamp;P1;durP1;ratioP1;P2;durP2;ratioP2
7231;SDS011;3657;49.630;11.018;2022-10-10T00:01:20;4.77;;;4.60;;
7231;SDS011;3657;49.630;11.018;2022-10-10T00:03:49;5.00;;;4.70;;
7231;SDS011;3657;49.630;11.018;2022-10-10T00:06:17;4.67;;;4.57;;
7231;SDS011;3657;49.630;11.018;2022-10-10T00:08:44;4.40;;;4.20;;
7231;SDS011;3657;49.630;11.018;2022-10-10T00:11:11;4.60;;;4.50;;
7231;SDS011;3657;49.630;11.018;2022-10-10T00:13:39;4.33;;;4.17;;
7231;SDS011;3657;49.630;11.018;2022-10-10T00:16:06;4.40;;;4.30;;
7231;SDS011;3657;49.630;11.018;2022-10-10T00:18:34;4.53;;;4.40;;
7231;SDS011;3657;49.630;11.018;2022-10-10T00:21:03;4.60;;;4.30;;
7231;SDS011;3657;49.630;11.018;2022-10-10T00:23:30;4.17;;;4.00;;
7231;SDS011;3657;49.630;11.018;2022-10-10T00:25:57;4.67;;;4.47;;
7231;SDS011;3657;49.630;11.018;2022-10-10T00:28:23;4.50;;;4.30;;
7231;SDS011;3657;49.630;11.018;2022-10-10T00:30:50;4.43;;;4.33;;
7231;SDS011;3657;49.630;11.018;2022-10-10T00:33:17;4.50;;;4.40;;
7231;SDS011;3657;49.630;11.018;2022-10-10T00:35:44;4.57;;;4.47;;
7231;SDS011;3657;49.630;11.018;2022-10-10T00:38:12;4.27;;;4.17;;
7231;SDS011;3657;49.630;11.018;2022-10-10T00:40:44;4.80;;;4.60;;
7231;SDS011;3657;49.630;11.018;2022-10-10T00:43:12;3.87;;;3.77;;
7231;SDS011;3657;49.630;11.018;2022-10-10T00:45:42;4.07;;;3.97;;
7231;SDS011;3657;49.630;11.018;2022-10-10T00:48:11;4.73;;;4.57;;
7231;SDS011;3657;49.630;11.018;2022-10-10T00:50:41;4.57;;;4.47;;
7231;SDS011;3657;49.630;11.018;2022-10-10T00:53:13;5.13;;;4.93;;
7231;SDS011;3657;49.630;11.018;2022-10-10T00:55:41;4.97;;;4.77;;
7231;SDS011;3657;49.630;11.018;2022-10-10T00:58:09;4.93;;;4.73;;
7231;SDS011;3657;49.630;11.018;2022-10-10T01:00:37;4.40;;;4.20;;
7231;SDS011;3657;49.630;11.018;2022-10-10T01:03:04;4.50;;;4.10;;
7231;SDS011;3657;49.630;11.018;2022-10-10T01:05:31;3.97;;;3.67;;
7231;SDS011;3657;49.630;11.018;2022-10-10T01:07:58;4.03;;;3.93;;
7231;SDS011;3657;49.630;11.018;2022-10-10T01:10:28;5.00;;;4.80;;
7231;SDS011;3657;49.630;11.018;2022-10-10T01:13:01;4.27;;;4.17;;
7231;SDS011;3657;49.630;11.018;2022-10-10T01:15:37;4.57;;;4.30;;
7231;SDS011;3657;49.630;11.018;2022-10-10T01:18:15;4.80;;;4.57;;
7231;SDS011;3657;49.630;11.018;2022-10-10T01:23:48;5.27;;;5.07;;
7231;SDS011;3657;49.630;11.018;2022-10-10T01:26:46;4.53;;;4.43;;
7231;SDS011;3657;49.630;11.018;2022-10-10T01:29:40;4.70;;;4.50;;
7231;SDS011;3657;49.630;11.018;2022-10-10T01:32:12;3.80;;;3.70;;
7231;SDS011;3657;49.630;11.018;2022-10-10T01:34:44;4.50;;;4.30;;
7231;SDS011;3657;49.630;11.018;2022-10-10T01:37:19;4.40;;;4.30;;
7231;SDS011;3657;49.630;11.018;2022-10-10T01:39:51;4.00;;;3.90;;
7231;SDS011;3657;49.630;11.018;2022-10-10T01:42:23;4.23;;;4.03;;
7231;SDS011;3657;49.630;11.018;2022-10-10T01:44:56;4.27;;;4.17;;
7231;SDS011;3657;49.630;11.018;2022-10-10T01:47:23;5.03;;;4.83;;
7231;SDS011;3657;49.630;11.018;2022-10-10T01:49:52;5.63;;;5.27;;
7231;SDS011;3657;49.630;11.018;2022-10-10T01:52:24;5.13;;;4.90;;
7231;SDS011;3657;49.630;11.018;2022-10-10T01:55:04;4.90;;;4.70;;
7231;SDS011;3657;49.630;11.018;2022-10-10T01:57:46;5.70;;;5.50;;
7231;SDS011;3657;49.630;11.018;2022-10-10T02:00:25;5.33;;;5.13;;
7231;SDS011;3657;49.630;11.018;2022-10-10T02:02:53;5.43;;;5.23;;
7231;SDS011;3657;49.630;11.018;2022-10-10T02:05:24;5.40;;;5.10;;
7231;SDS011;3657;49.630;11.018;2022-10-10T02:07:56;4.77;;;4.67;;
7231;SDS011;3657;49.630;11.018;2022-10-10T02:10:30;5.03;;;4.83;;
7231;SDS011;3657;49.630;11.018;2022-10-10T02:13:02;5.33;;;5.13;;
7231;SDS011;3657;49.630;11.018;2022-10-10T02:15:33;5.00;;;4.70;;
7231;SDS011;3657;49.630;11.018;2022-10-10T02:18:05;4.83;;;4.53;;
7231;SDS011;3657;49.630;11.018;2022-10-10T02:20:33;4.27;;;4.17;;
7231;SDS011;3657;49.630;11.018;2022-10-10T02:23:01;4.63;;;4.43;;
7231;SDS011;3657;49.630;11.018;2022-10-10T02:25:30;5.30;;;5.07;;
7231;SDS011;3657;49.630;11.018;2022-10-10T02:28:04;4.33;;;4.23;;
7231;SDS011;3657;49.630;11.018;2022-10-10T02:30:37;5.23;;;4.97;;
7231;SDS011;3657;49.630;11.018;2022-10-10T02:33:07;4.97;;;4.87;;
7231;SDS011;3657;49.630;11.018;2022-10-10T02:35:34;4.70;;;4.50;;
7231;SDS011;3657;49.630;11.018;2022-10-10T02:38:06;4.60;;;4.50;;
7231;SDS011;3657;49.630;11.018;2022-10-10T02:40:36;5.33;;;5.13;;
7231;SDS011;3657;49.630;11.018;2022-10-10T02:43:05;4.97;;;4.73;;
7231;SDS011;3657;49.630;11.018;2022-10-10T02:45:32;4.20;;;4.10;;
7231;SDS011;3657;49.630;11.018;2022-10-10T02:48:01;4.67;;;4.47;;
7231;SDS011;3657;49.630;11.018;2022-10-10T02:50:28;4.23;;;4.13;;
7231;SDS011;3657;49.630;11.018;2022-10-10T02:52:56;5.07;;;4.90;;
7231;SDS011;3657;49.630;11.018;2022-10-10T02:55:23;4.20;;;4.10;;
7231;SDS011;3657;49.630;11.018;2022-10-10T02:57:50;5.73;;;5.33;;
7231;SDS011;3657;49.630;11.018;2022-10-10T03:00:17;5.20;;;5.00;;
7231;SDS011;3657;49.630;11.018;2022-10-10T03:02:45;4.60;;;4.40;;
7231;SDS011;3657;49.630;11.018;2022-10-10T03:05:13;5.00;;;4.80;;
7231;SDS011;3657;49.630;11.018;2022-10-10T03:07:40;5.10;;;4.90;;
7231;SDS011;3657;49.630;11.018;2022-10-10T03:10:07;4.20;;;4.00;;
7231;SDS011;3657;49.630;11.018;2022-10-10T03:12:34;5.07;;;4.87;;
7231;SDS011;3657;49.630;11.018;2022-10-10T03:15:01;4.07;;;3.97;;
7231;SDS011;3657;49.630;11.018;2022-10-10T03:17:29;4.67;;;4.57;;
7231;SDS011;3657;49.630;11.018;2022-10-10T03:19:56;4.73;;;4.63;;
7231;SDS011;3657;49.630;11.018;2022-10-10T03:22:24;4.30;;;4.20;;
7231;SDS011;3657;49.630;11.018;2022-10-10T03:24:50;4.53;;;4.33;;
7231;SDS011;3657;49.630;11.018;2022-10-10T03:27:17;5.03;;;4.83;;
7231;SDS011;3657;49.630;11.018;2022-10-10T03:29:44;5.70;;;5.40;;
7231;SDS011;3657;49.630;11.018;2022-10-10T03:32:10;4.53;;;4.30;;
7231;SDS011;3657;49.630;11.018;2022-10-10T03:34:37;4.30;;;4.10;;
7231;SDS011;3657;49.630;11.018;2022-10-10T03:37:04;6.47;;;6.27;;
7231;SDS011;3657;49.630;11.018;2022-10-10T03:39:32;5.23;;;5.03;;
7231;SDS011;3657;49.630;11.018;2022-10-10T03:41:58;5.77;;;5.57;;
7231;SDS011;3657;49.630;11.018;2022-10-10T03:44:25;4.67;;;4.47;;
7231;SDS011;3657;49.630;11.018;2022-10-10T03:46:52;6.40;;;6.00;;
7231;SDS011;3657;49.630;11.018;2022-10-10T03:49:18;5.80;;;5.50;;
7231;SDS011;3657;49.630;11.018;2022-10-10T03:51:45;6.30;;;6.10;;
7231;SDS011;3657;49.630;11.018;2022-10-10T03:54:12;6.07;;;5.80;;
7231;SDS011;3657;49.630;11.018;2022-10-10T03:56:40;5.70;;;5.40;;
7231;SDS011;3657;49.630;11.018;2022-10-10T03:59:07;5.87;;;5.47;;
7231;SDS011;3657;49.630;11.018;2022-10-10T04:01:33;5.63;;;5.40;;
7231;SDS011;3657;49.630;11.018;2022-10-10T04:04:00;5.87;;;5.67;;
7231;SDS011;3657;49.630;11.018;2022-10-10T04:06:27;5.83;;;5.63;;
7231;SDS011;3657;49.630;11.018;2022-10-10T04:08:54;5.93;;;5.73;;
7231;SDS011;3657;49.630;11.018;2022-10-10T04:11:21;6.47;;;6.23;;
7231;SDS011;3657;49.630;11.018;2022-10-10T04:13:49;6.30;;;5.93;;
7231;SDS011;3657;49.630;11.018;2022-10-10T04:16:15;7.00;;;6.50;;
7231;SDS011;3657;49.630;11.018;2022-10-10T04:18:42;5.63;;;5.33;;
7231;SDS011;3657;49.630;11.018;2022-10-10T04:21:09;5.03;;;4.83;;
7231;SDS011;3657;49.630;11.018;2022-10-10T04:23:37;4.60;;;4.40;;
7231;SDS011;3657;49.630;11.018;2022-10-10T04:26:05;4.93;;;4.73;;
7231;SDS011;3657;49.630;11.018;2022-10-10T04:28:31;5.27;;;4.87;;
7231;SDS011;3657;49.630;11.018;2022-10-10T04:31:00;5.63;;;5.33;;
7231;SDS011;3657;49.630;11.018;2022-10-10T04:33:26;5.13;;;4.93;;
7231;SDS011;3657;49.630;11.018;2022-10-10T04:35:53;4.90;;;4.70;;
7231;SDS011;3657;49.630;11.018;2022-10-10T04:38:20;6.10;;;5.70;;
7231;SDS011;3657;49.630;11.018;2022-10-10T04:40:46;5.53;;;5.33;;
7231;SDS011;3657;49.630;11.018;2022-10-10T04:43:13;8.93;;;5.23;;
7231;SDS011;3657;49.630;11.018;2022-10-10T04:45:40;4.93;;;4.80;;
7231;SDS011;3657;49.630;11.018;2022-10-10T04:48:08;6.27;;;5.97;;
7231;SDS011;3657;49.630;11.018;2022-10-10T04:50:35;5.57;;;5.27;;
7231;SDS011;3657;49.630;11.018;2022-10-10T04:53:02;5.77;;;5.57;;
7231;SDS011;3657;49.630;11.018;2022-10-10T04:55:29;5.00;;;4.80;;
7231;SDS011;3657;49.630;11.018;2022-10-10T04:57:55;6.60;;;6.30;;
7231;SDS011;3657;49.630;11.018;2022-10-10T05:00:22;5.57;;;5.27;;
7231;SDS011;3657;49.630;11.018;2022-10-10T05:02:49;5.10;;;4.90;;
7231;SDS011;3657;49.630;11.018;2022-10-10T05:05:17;5.30;;;4.87;;
7231;SDS011;3657;49.630;11.018;2022-10-10T05:07:44;5.20;;;5.00;;
7231;SDS011;3657;49.630;11.018;2022-10-10T05:10:10;5.03;;;4.83;;
7231;SDS011;3657;49.630;11.018;2022-10-10T05:12:37;5.00;;;4.90;;
7231;SDS011;3657;49.630;11.018;2022-10-10T05:15:04;4.93;;;4.83;;
7231;SDS011;3657;49.630;11.018;2022-10-10T05:17:31;5.43;;;5.23;;
7231;SDS011;3657;49.630;11.018;2022-10-10T05:19:58;6.33;;;5.90;;
7231;SDS011;3657;49.630;11.018;2022-10-10T05:22:26;5.30;;;5.10;;
7231;SDS011;3657;49.630;11.018;2022-10-10T05:24:53;6.13;;;5.73;;
7231;SDS011;3657;49.630;11.018;2022-10-10T05:27:19;6.13;;;5.93;;
7231;SDS011;3657;49.630;11.018;2022-10-10T05:29:46;4.87;;;4.67;;
7231;SDS011;3657;49.630;11.018;2022-10-10T05:32:13;5.90;;;5.60;;
7231;SDS011;3657;49.630;11.018;2022-10-10T05:34:39;5.10;;;4.90;;
7231;SDS011;3657;49.630;11.018;2022-10-10T05:37:06;5.67;;;5.47;;
7231;SDS011;3657;49.630;11.018;2022-10-10T05:39:34;6.30;;;5.90;;
7231;SDS011;3657;49.630;11.018;2022-10-10T05:42:01;5.70;;;5.50;;
7231;SDS011;3657;49.630;11.018;2022-10-10T05:44:28;6.37;;;6.07;;
7231;SDS011;3657;49.630;11.018;2022-10-10T05:46:54;6.27;;;5.97;;
7231;SDS011;3657;49.630;11.018;2022-10-10T05:49:21;5.97;;;5.77;;
7231;SDS011;3657;49.630;11.018;2022-10-10T05:51:48;5.70;;;5.50;;
7231;SDS011;3657;49.630;11.018;2022-10-10T05:54:15;6.10;;;5.90;;
7231;SDS011;3657;49.630;11.018;2022-10-10T05:56:43;4.90;;;4.70;;
7231;SDS011;3657;49.630;11.018;2022-10-10T05:59:10;6.73;;;6.23;;
7231;SDS011;3657;49.630;11.018;2022-10-10T06:01:37;5.77;;;5.53;;
7231;SDS011;3657;49.630;11.018;2022-10-10T06:04:03;6.10;;;5.90;;
7231;SDS011;3657;49.630;11.018;2022-10-10T06:06:30;6.83;;;6.33;;
7231;SDS011;3657;49.630;11.018;2022-10-10T06:08:57;6.37;;;5.93;;
7231;SDS011;3657;49.630;11.018;2022-10-10T06:11:24;6.57;;;6.27;;
7231;SDS011;3657;49.630;11.018;2022-10-10T06:13:52;6.33;;;5.93;;
7231;SDS011;3657;49.630;11.018;2022-10-10T06:16:19;5.97;;;5.70;;
7231;SDS011;3657;49.630;11.018;2022-10-10T06:18:46;6.40;;;6.07;;
7231;SDS011;3657;49.630;11.018;2022-10-10T06:21:13;6.53;;;6.17;;
7231;SDS011;3657;49.630;11.018;2022-10-10T06:23:40;6.07;;;5.77;;
7231;SDS011;3657;49.630;11.018;2022-10-10T06:26:07;6.87;;;6.47;;
7231;SDS011;3657;49.630;11.018;2022-10-10T06:28:34;5.90;;;5.60;;
7231;SDS011;3657;49.630;11.018;2022-10-10T06:31:02;6.13;;;5.83;;
7231;SDS011;3657;49.630;11.018;2022-10-10T06:33:30;5.80;;;5.50;;
7231;SDS011;3657;49.630;11.018;2022-10-10T06:35:57;6.30;;;6.00;;
7231;SDS011;3657;49.630;11.018;2022-10-10T06:38:24;5.80;;;5.60;;
7231;SDS011;3657;49.630;11.018;2022-10-10T06:40:52;7.67;;;7.13;;
7231;SDS011;3657;49.630;11.018;2022-10-10T06:43:19;5.80;;;5.60;;
7231;SDS011;3657;49.630;11.018;2022-10-10T06:45:46;6.43;;;6.23;;
7231;SDS011;3657;49.630;11.018;2022-10-10T06:48:16;6.57;;;6.20;;
7231;SDS011;3657;49.630;11.018;2022-10-10T06:50:53;6.80;;;6.50;;
7231;SDS011;3657;49.630;11.018;2022-10-10T06:53:21;6.37;;;6.13;;
7231;SDS011;3657;49.630;11.018;2022-10-10T06:55:48;6.77;;;6.33;;
7231;SDS011;3657;49.630;11.018;2022-10-10T06:58:14;7.63;;;7.13;;
7231;SDS011;3657;49.630;11.018;2022-10-10T07:00:46;7.60;;;7.17;;
7231;SDS011;3657;49.630;11.018;2022-10-10T07:03:14;6.83;;;6.50;;
7231;SDS011;3657;49.630;11.018;2022-10-10T07:05:42;6.77;;;6.37;;
7231;SDS011;3657;49.630;11.018;2022-10-10T07:08:09;7.43;;;6.93;;
7231;SDS011;3657;49.630;11.018;2022-10-10T07:10:35;8.17;;;7.77;;
7231;SDS011;3657;49.630;11.018;2022-10-10T07:13:02;7.17;;;6.87;;
7231;SDS011;3657;49.630;11.018;2022-10-10T07:15:29;7.43;;;7.13;;
7231;SDS011;3657;49.630;11.018;2022-10-10T07:17:56;6.97;;;6.77;;
7231;SDS011;3657;49.630;11.018;2022-10-10T07:20:23;7.50;;;7.10;;
7231;SDS011;3657;49.630;11.018;2022-10-10T07:22:52;6.40;;;6.20;;
7231;SDS011;3657;49.630;11.018;2022-10-10T07:25:19;10.40;;;9.80;;
7231;SDS011;3657;49.630;11.018;2022-10-10T07:27:45;7.73;;;7.43;;
7231;SDS011;3657;49.630;11.018;2022-10-10T07:30:13;9.73;;;9.03;;
7231;SDS011;3657;49.630;11.018;2022-10-10T07:32:40;9.70;;;9.10;;
7231;SDS011;3657;49.630;11.018;2022-10-10T07:35:07;9.40;;;8.83;;
7231;SDS011;3657;49.630;11.018;2022-10-10T07:37:35;8.57;;;8.17;;
7231;SDS011;3657;49.630;11.018;2022-10-10T07:40:03;7.77;;;7.30;;
7231;SDS011;3657;49.630;11.018;2022-10-10T07:42:32;7.17;;;6.70;;
7231;SDS011;3657;49.630;11.018;2022-10-10T07:44:59;8.00;;;7.70;;
7231;SDS011;3657;49.630;11.018;2022-10-10T07:47:26;7.37;;;6.70;;
7231;SDS011;3657;49.630;11.018;2022-10-10T07:49:52;7.10;;;6.50;;
7231;SDS011;3657;49.630;11.018;2022-10-10T07:52:19;6.97;;;6.40;;
7231;SDS011;3657;49.630;11.018;2022-10-10T07:54:46;6.57;;;6.37;;
7231;SDS011;3657;49.630;11.018;2022-10-10T07:57:14;7.83;;;7.53;;
7231;SDS011;3657;49.630;11.018;2022-10-10T07:59:40;7.80;;;7.50;;
7231;SDS011;3657;49.630;11.018;2022-10-10T08:02:09;7.07;;;6.87;;
7231;SDS011;3657;49.630;11.018;2022-10-10T08:04:36;7.03;;;6.73;;
7231;SDS011;3657;49.630;11.018;2022-10-10T08:07:04;7.80;;;7.50;;
7231;SDS011;3657;49.630;11.018;2022-10-10T08:09:30;7.93;;;7.53;;
7231;SDS011;3657;49.630;11.018;2022-10-10T08:11:57;6.90;;;6.63;;
7231;SDS011;3657;49.630;11.018;2022-10-10T08:14:25;7.40;;;6.90;;
7231;SDS011;3657;49.630;11.018;2022-10-10T08:16:52;7.73;;;7.13;;
7231;SDS011;3657;49.630;11.018;2022-10-10T08:19:19;7.10;;;6.80;;
7231;SDS011;3657;49.630;11.018;2022-10-10T08:21:45;7.70;;;7.30;;
7231;SDS011;3657;49.630;11.018;2022-10-10T08:24:12;7.23;;;6.93;;
7231;SDS011;3657;49.630;11.018;2022-10-10T08:26:39;7.67;;;7.37;;
7231;SDS011;3657;49.630;11.018;2022-10-10T08:29:05;8.57;;;8.07;;
7231;SDS011;3657;49.630;11.018;2022-10-10T08:31:33;7.90;;;7.60;;
7231;SDS011;3657;49.630;11.018;2022-10-10T08:34:00;7.67;;;7.37;;
7231;SDS011;3657;49.630;11.018;2022-10-10T08:36:27;7.77;;;7.47;;
7231;SDS011;3657;49.630;11.018;2022-10-10T08:38:54;7.77;;;7.40;;
7231;SDS011;3657;49.630;11.018;2022-10-10T08:41:27;8.20;;;7.60;;
7231;SDS011;3657;49.630;11.018;2022-10-10T08:44:03;8.87;;;8.27;;
7231;SDS011;3657;49.630;11.018;2022-10-10T08:46:38;9.40;;;8.80;;
7231;SDS011;3657;49.630;11.018;2022-10-10T08:49:12;9.00;;;8.67;;
7231;SDS011;3657;49.630;11.018;2022-10-10T08:51:45;7.67;;;7.37;;
7231;SDS011;3657;49.630;11.018;2022-10-10T08:54:18;7.77;;;7.47;;
7231;SDS011;3657;49.630;11.018;2022-10-10T08:56:46;9.67;;;9.27;;
7231;SDS011;3657;49.630;11.018;2022-10-10T08:59:15;10.13;;;9.63;;
7231;SDS011;3657;49.630;11.018;2022-10-10T09:01:47;10.37;;;9.83;;
7231;SDS011;3657;49.630;11.018;2022-10-10T09:04:17;9.63;;;8.93;;
7231;SDS011;3657;49.630;11.018;2022-10-10T09:06:51;8.80;;;8.20;;
7231;SDS011;3657;49.630;11.018;2022-10-10T09:09:28;7.83;;;7.53;;
7231;SDS011;3657;49.630;11.018;2022-10-10T09:12:04;7.57;;;7.17;;
7231;SDS011;3657;49.630;11.018;2022-10-10T09:14:39;7.47;;;7.17;;
7231;SDS011;3657;49.630;11.018;2022-10-10T09:17:16;8.73;;;8.27;;
7231;SDS011;3657;49.630;11.018;2022-10-10T09:19:50;10.07;;;9.57;;
7231;SDS011;3657;49.630;11.018;2022-10-10T09:22:22;9.23;;;8.83;;
7231;SDS011;3657;49.630;11.018;2022-10-10T09:24:52;9.67;;;9.07;;
7231;SDS011;3657;49.630;11.018;2022-10-10T09:27:23;8.17;;;7.87;;
7231;SDS011;3657;49.630;11.018;2022-10-10T09:29:58;9.50;;;9.00;;
7231;SDS011;3657;49.630;11.018;2022-10-10T09:32:32;11.20;;;10.43;;
7231;SDS011;3657;49.630;11.018;2022-10-10T09:35:05;10.87;;;10.27;;
7231;SDS011;3657;49.630;11.018;2022-10-10T09:37:40;10.23;;;9.60;;
7231;SDS011;3657;49.630;11.018;2022-10-10T09:40:11;9.40;;;9.00;;
7231;SDS011;3657;49.630;11.018;2022-10-10T09:42:44;9.90;;;9.33;;
7231;SDS011;3657;49.630;11.018;2022-10-10T09:45:13;10.53;;;9.93;;
7231;SDS011;3657;49.630;11.018;2022-10-10T09:47:44;9.50;;;8.63;;
7231;SDS011;3657;49.630;11.018;2022-10-10T09:50:13;10.50;;;10.00;;
7231;SDS011;3657;49.630;11.018;2022-10-10T09:52:41;8.97;;;8.60;;
7231;SDS011;3657;49.630;11.018;2022-10-10T09:55:14;9.27;;;8.73;;
7231;SDS011;3657;49.630;11.018;2022-10-10T09:57:47;9.03;;;8.60;;
7231;SDS011;3657;49.630;11.018;2022-10-10T10:00:25;10.50;;;9.90;;
7231;SDS011;3657;49.630;11.018;2022-10-10T10:03:12;10.37;;;9.73;;
7231;SDS011;3657;49.630;11.018;2022-10-10T10:05:40;11.33;;;10.43;;
7231;SDS011;3657;49.630;11.018;2022-10-10T10:08:21;11.47;;;10.80;;
7231;SDS011;3657;49.630;11.018;2022-10-10T10:10:50;10.77;;;10.17;;
7231;SDS011;3657;49.630;11.018;2022-10-10T10:13:18;10.77;;;10.10;;
7231;SDS011;3657;49.630;11.018;2022-10-10T10:15:50;11.77;;;11.07;;
7231;SDS011;3657;49.630;11.018;2022-10-10T10:18:25;10.07;;;9.57;;
7231;SDS011;3657;49.630;11.018;2022-10-10T10:20:54;11.73;;;10.90;;
7231;SDS011;3657;49.630;11.018;2022-10-10T10:23:39;10.60;;;10.00;;
7231;SDS011;3657;49.630;11.018;2022-10-10T10:26:13;10.50;;;10.10;;
7231;SDS011;3657;49.630;11.018;2022-10-10T10:28:42;11.77;;;11.07;;
7231;SDS011;3657;49.630;11.018;2022-10-10T10:31:12;9.23;;;8.77;;
7231;SDS011;3657;49.630;11.018;2022-10-10T10:33:46;10.53;;;10.13;;
7231;SDS011;3657;49.630;11.018;2022-10-10T10:36:22;9.83;;;9.33;;
7231;SDS011;3657;49.630;11.018;2022-10-10T10:38:59;12.07;;;10.93;;
7231;SDS011;3657;49.630;11.018;2022-10-10T10:41:32;10.87;;;10.37;;
7231;SDS011;3657;49.630;11.018;2022-10-10T10:44:06;12.27;;;11.30;;
7231;SDS011;3657;49.630;11.018;2022-10-10T10:46:45;11.80;;;11.30;;
7231;SDS011;3657;49.630;11.018;2022-10-10T10:49:21;11.77;;;11.17;;
7231;SDS011;3657;49.630;11.018;2022-10-10T10:51:59;11.10;;;10.40;;
7231;SDS011;3657;49.630;11.018;2022-10-10T10:54:52;10.87;;;9.87;;
7231;SDS011;3657;49.630;11.018;2022-10-10T10:57:49;10.20;;;9.43;;
7231;SDS011;3657;49.630;11.018;2022-10-10T11:00:27;11.30;;;10.63;;
7231;SDS011;3657;49.630;11.018;2022-10-10T11:03:04;9.13;;;8.60;;
7231;SDS011;3657;49.630;11.018;2022-10-10T11:05:45;10.47;;;10.07;;
7231;SDS011;3657;49.630;11.018;2022-10-10T11:08:27;11.53;;;10.73;;
7231;SDS011;3657;49.630;11.018;2022-10-10T11:11:17;11.07;;;10.30;;
7231;SDS011;3657;49.630;11.018;2022-10-10T11:13:52;8.00;;;7.70;;
7231;SDS011;3657;49.630;11.018;2022-10-10T11:16:24;10.60;;;10.07;;
7231;SDS011;3657;49.630;11.018;2022-10-10T11:19:00;15.83;;;9.60;;
7231;SDS011;3657;49.630;11.018;2022-10-10T11:21:36;12.07;;;9.50;;
7231;SDS011;3657;49.630;11.018;2022-10-10T11:24:08;11.20;;;8.93;;
7231;SDS011;3657;49.630;11.018;2022-10-10T11:26:38;19.20;;;8.70;;
7231;SDS011;3657;49.630;11.018;2022-10-10T11:29:11;8.70;;;8.17;;
7231;SDS011;3657;49.630;11.018;2022-10-10T11:31:42;9.47;;;8.67;;
7231;SDS011;3657;49.630;11.018;2022-10-10T11:34:15;8.77;;;8.27;;
7231;SDS011;3657;49.630;11.018;2022-10-10T11:36:48;8.43;;;7.90;;
7231;SDS011;3657;49.630;11.018;2022-10-10T11:39:19;8.70;;;7.93;;
7231;SDS011;3657;49.630;11.018;2022-10-10T11:41:52;8.40;;;7.90;;
7231;SDS011;3657;49.630;11.018;2022-10-10T11:44:23;8.10;;;7.70;;
7231;SDS011;3657;49.630;11.018;2022-10-10T11:46:57;7.67;;;7.23;;
7231;SDS011;3657;49.630;11.018;2022-10-10T11:49:27;8.13;;;7.73;;
7231;SDS011;3657;49.630;11.018;2022-10-10T11:52:11;9.17;;;8.50;;
7231;SDS011;3657;49.630;11.018;2022-10-10T11:54:45;7.47;;;7.20;;
7231;SDS011;3657;49.630;11.018;2022-10-10T11:57:21;7.97;;;7.67;;
7231;SDS011;3657;49.630;11.018;2022-10-10T11:59:56;8.30;;;7.67;;
7231;SDS011;3657;49.630;11.018;2022-10-10T12:02:29;7.50;;;7.17;;
7231;SDS011;3657;49.630;11.018;2022-10-10T12:05:00;7.37;;;6.97;;
7231;SDS011;3657;49.630;11.018;2022-10-10T12:07:31;7.90;;;7.60;;
7231;SDS011;3657;49.630;11.018;2022-10-10T12:10:05;7.40;;;7.10;;
7231;SDS011;3657;49.630;11.018;2022-10-10T12:12:37;7.27;;;6.90;;
7231;SDS011;3657;49.630;11.018;2022-10-10T12:15:08;6.83;;;6.53;;
7231;SDS011;3657;49.630;11.018;2022-10-10T12:17:43;7.70;;;7.20;;
7231;SDS011;3657;49.630;11.018;2022-10-10T12:20:28;8.50;;;8.10;;
7231;SDS011;3657;49.630;11.018;2022-10-10T12:23:17;8.43;;;7.90;;
7231;SDS011;3657;49.630;11.018;2022-10-10T12:25:47;8.00;;;7.67;;
7231;SDS011;3657;49.630;11.018;2022-10-10T12:28:28;8.53;;;8.13;;
7231;SDS011;3657;49.630;11.018;2022-10-10T12:33:59;8.50;;;8.10;;
7231;SDS011;3657;49.630;11.018;2022-10-10T12:36:41;10.03;;;9.03;;
7231;SDS011;3657;49.630;11.018;2022-10-10T12:39:34;8.60;;;8.07;;
7231;SDS011;3657;49.630;11.018;2022-10-10T12:42:25;8.00;;;7.50;;
7231;SDS011;3657;49.630;11.018;2022-10-10T12:44:53;8.77;;;8.33;;
7231;SDS011;3657;49.630;11.018;2022-10-10T12:47:35;8.17;;;7.67;;
7231;SDS011;3657;49.630;11.018;2022-10-10T12:50:17;8.03;;;7.67;;
7231;SDS011;3657;49.630;11.018;2022-10-10T12:52:48;7.83;;;7.43;;
7231;SDS011;3657;49.630;11.018;2022-10-10T12:55:20;8.60;;;8.03;;
7231;SDS011;3657;49.630;11.018;2022-10-10T12:57:50;8.40;;;7.70;;
7231;SDS011;3657;49.630;11.018;2022-10-10T13:00:19;8.37;;;8.03;;
7231;SDS011;3657;49.630;11.018;2022-10-10T13:02:48;8.50;;;7.90;;
7231;SDS011;3657;49.630;11.018;2022-10-10T13:05:19;7.83;;;7.43;;
7231;SDS011;3657;49.630;11.018;2022-10-10T13:07:50;8.00;;;7.60;;
7231;SDS011;3657;49.630;11.018;2022-10-10T13:10:23;8.53;;;8.07;;
7231;SDS011;3657;49.630;11.018;2022-10-10T13:12:58;8.20;;;7.77;;
7231;SDS011;3657;49.630;11.018;2022-10-10T13:15:26;8.97;;;8.37;;
7231;SDS011;3657;49.630;11.018;2022-10-10T13:17:53;7.10;;;6.80;;
7231;SDS011;3657;49.630;11.018;2022-10-10T13:20:31;8.37;;;7.87;;
7231;SDS011;3657;49.630;11.018;2022-10-10T13:23:02;9.07;;;8.67;;
7231;SDS011;3657;49.630;11.018;2022-10-10T13:25:31;9.10;;;8.60;;
7231;SDS011;3657;49.630;11.018;2022-10-10T13:27:59;9.43;;;8.97;;
7231;SDS011;3657;49.630;11.018;2022-10-10T13:30:26;9.73;;;9.27;;
7231;SDS011;3657;49.630;11.018;2022-10-10T13:32:53;10.43;;;9.87;;
7231;SDS011;3657;49.630;11.018;2022-10-10T13:35:21;9.77;;;9.33;;
7231;SDS011;3657;49.630;11.018;2022-10-10T13:37:52;8.87;;;8.37;;
7231;SDS011;3657;49.630;11.018;2022-10-10T13:40:20;10.37;;;9.70;;
7231;SDS011;3657;49.630;11.018;2022-10-10T13:48:39;9.50;;;9.10;;
7231;SDS011;3657;49.630;11.018;2022-10-10T13:51:07;8.53;;;8.23;;
7231;SDS011;3657;49.630;11.018;2022-10-10T13:53:42;10.63;;;9.80;;
7231;SDS011;3657;49.630;11.018;2022-10-10T13:56:11;9.37;;;8.87;;
7231;SDS011;3657;49.630;11.018;2022-10-10T13:58:41;10.07;;;9.43;;
7231;SDS011;3657;49.630;11.018;2022-10-10T14:03:59;9.73;;;9.13;;
7231;SDS011;3657;49.630;11.018;2022-10-10T14:06:29;9.30;;;8.80;;
7231;SDS011;3657;49.630;11.018;2022-10-10T14:09:02;8.13;;;7.63;;
7231;SDS011;3657;49.630;11.018;2022-10-10T14:11:33;8.60;;;8.30;;
7231;SDS011;3657;49.630;11.018;2022-10-10T14:14:01;7.40;;;7.10;;
7231;SDS011;3657;49.630;11.018;2022-10-10T14:16:32;9.37;;;8.77;;
7231;SDS011;3657;49.630;11.018;2022-10-10T14:19:00;8.00;;;7.53;;
7231;SDS011;3657;49.630;11.018;2022-10-10T14:21:27;7.33;;;7.10;;
7231;SDS011;3657;49.630;11.018;2022-10-10T14:23:54;11.17;;;10.57;;
7231;SDS011;3657;49.630;11.018;2022-10-10T14:26:20;9.60;;;9.10;;
7231;SDS011;3657;49.630;11.018;2022-10-10T14:28:47;9.70;;;9.20;;
7231;SDS011;3657;49.630;11.018;2022-10-10T14:31:14;8.83;;;8.43;;
7231;SDS011;3657;49.630;11.018;2022-10-10T14:33:41;9.60;;;9.00;;
7231;SDS011;3657;49.630;11.018;2022-10-10T14:36:09;9.70;;;9.23;;
7231;SDS011;3657;49.630;11.018;2022-10-10T14:38:37;9.17;;;8.77;;
7231;SDS011;3657;49.630;11.018;2022-10-10T14:41:03;9.30;;;8.80;;
7231;SDS011;3657;49.630;11.018;2022-10-10T14:43:31;9.03;;;8.60;;
7231;SDS011;3657;49.630;11.018;2022-10-10T14:45:57;10.33;;;9.63;;
7231;SDS011;3657;49.630;11.018;2022-10-10T14:48:26;9.87;;;9.57;;
7231;SDS011;3657;49.630;11.018;2022-10-10T14:50:52;10.97;;;9.93;;
7231;SDS011;3657;49.630;11.018;2022-10-10T14:53:20;9.00;;;8.20;;
7231;SDS011;3657;49.630;11.018;2022-10-10T14:55:47;9.17;;;8.60;;
7231;SDS011;3657;49.630;11.018;2022-10-10T14:58:14;9.07;;;8.47;;
7231;SDS011;3657;49.630;11.018;2022-10-10T15:00:42;8.57;;;8.17;;
7231;SDS011;3657;49.630;11.018;2022-10-10T15:03:09;9.53;;;8.93;;
7231;SDS011;3657;49.630;11.018;2022-10-10T15:05:36;9.03;;;8.63;;
7231;SDS011;3657;49.630;11.018;2022-10-10T15:08:03;10.17;;;9.53;;
7231;SDS011;3657;49.630;11.018;2022-10-10T15:10:31;9.30;;;8.87;;
7231;SDS011;3657;49.630;11.018;2022-10-10T15:12:58;8.83;;;8.37;;
7231;SDS011;3657;49.630;11.018;2022-10-10T15:15:25;9.90;;;9.33;;
7231;SDS011;3657;49.630;11.018;2022-10-10T15:17:51;10.00;;;9.40;;
7231;SDS011;3657;49.630;11.018;2022-10-10T15:20:18;10.47;;;9.87;;
7231;SDS011;3657;49.630;11.018;2022-10-10T15:22:49;9.73;;;9.33;;
7231;SDS011;3657;49.630;11.018;2022-10-10T15:25:16;9.90;;;9.27;;
7231;SDS011;3657;49.630;11.018;2022-10-10T15:27:44;9.93;;;9.43;;
7231;SDS011;3657;49.630;11.018;2022-10-10T15:30:11;10.23;;;9.47;;